Time;durP1;ratioP1;P1;durP2;ratioP2;P2;SDS_P1;SDS_P2;PMS_P1;PMS_P2;Temp;Humidity;BMP_temperature;BMP_pressure;BME280_temperature;BME280_humidity;BME280_pressure;Samples;Min_cycle;Max_cycle;Signal;HPM_P1;HPM_P2
2022/04/22 00:00:45;;;;;;;11.68;7.95;;;;;;;11.51;61.74;100864.81;5022113;28;20026;-78
2022/04/22 00:03:11;;;;;;;11.27;7.85;;;;;;;11.43;61.82;100861.19;5021805;28;20094;-78
2022/04/22 00:05:37;;;;;;;12.43;7.93;;;;;;;11.40;62.20;100854.16;5022003;28;20032;-78
2022/04/22 00:08:02;;;;;;;11.90;8.13;;;;;;;11.36;62.58;100854.94;5021744;28;20025;-78
2022/04/22 00:10:28;;;;;;;11.63;8.63;;;;;;;11.36;62.75;100854.09;5021128;28;20100;-78
2022/04/22 00:12:54;;;;;;;13.27;8.48;;;;;;;11.31;62.94;100851.34;5022033;28;20029;-78
2022/04/22 00:15:20;;;;;;;11.35;8.45;;;;;;;11.29;62.93;100851.31;5021644;28;20025;-78
2022/04/22 00:17:46;;;;;;;10.90;8.18;;;;;;;11.29;62.98;100851.31;5022761;28;20026;-78
2022/04/22 00:20:11;;;;;;;11.68;8.23;;;;;;;11.26;63.04;100853.00;5022705;28;20229;-78
2022/04/22 00:22:39;;;;;;;11.75;8.43;;;;;;;11.26;63.04;100848.66;5022554;28;20065;-78
2022/04/22 00:25:06;;;;;;;10.63;7.82;;;;;;;11.21;63.61;100842.47;5022848;28;20036;-78
2022/04/22 00:27:31;;;;;;;11.75;8.38;;;;;;;11.22;63.17;100852.03;5020652;28;20093;-78
2022/04/22 00:29:57;;;;;;;11.82;8.27;;;;;;;11.23;63.37;100850.34;5021106;28;20164;-78
2022/04/22 00:32:22;;;;;;;11.88;8.93;;;;;;;11.12;63.27;100850.09;5021932;28;20267;-78
2022/04/22 00:34:47;;;;;;;12.90;8.73;;;;;;;11.06;64.02;100844.75;5023863;28;20029;-78
2022/04/22 00:37:13;;;;;;;11.30;8.02;;;;;;;11.03;64.09;100844.69;5025545;28;20022;-78
2022/04/22 00:39:38;;;;;;;12.82;8.48;;;;;;;10.96;64.27;100846.28;5026828;28;20069;-78
2022/04/22 00:42:09;;;;;;;12.65;8.25;;;;;;;10.94;64.11;100845.38;5024694;28;20080;-78
2022/04/22 00:44:34;;;;;;;12.77;8.32;;;;;;;10.92;64.51;100842.72;5025779;28;20056;-78
2022/04/22 00:46:59;;;;;;;12.18;8.43;;;;;;;10.90;64.79;100841.78;5025595;28;20204;-78
2022/04/22 00:49:24;;;;;;;12.27;8.60;;;;;;;10.88;65.16;100835.69;5024711;28;20033;-78
2022/04/22 00:51:50;;;;;;;13.88;8.95;;;;;;;10.83;65.32;100836.41;5024639;28;20264;-78
2022/04/22 00:54:15;;;;;;;14.25;9.00;;;;;;;10.79;65.44;100832.88;5024833;28;20025;-78
2022/04/22 00:56:40;;;;;;;12.57;8.75;;;;;;;10.78;65.17;100826.78;5025272;28;20108;-78
2022/04/22 00:59:06;;;;;;;16.05;8.98;;;;;;;10.73;65.52;100831.00;5026398;28;20049;-78
2022/04/22 01:01:33;;;;;;;13.82;9.02;;;;;;;10.72;65.58;100823.16;5024712;28;20084;-78
2022/04/22 01:12:12;;;;;;;15.32;9.48;;;;;;;10.72;65.89;100812.75;5024504;28;20040;-78
2022/04/22 01:14:37;;;;;;;14.07;9.35;;;;;;;10.70;66.13;100812.72;5025427;28;20050;-78
2022/04/22 01:17:04;;;;;;;14.65;8.95;;;;;;;10.71;66.12;100810.97;5025049;28;20029;-78
2022/04/22 01:19:29;;;;;;;12.00;9.27;;;;;;;10.68;66.32;100811.78;5024996;28;20033;-78
2022/04/22 01:21:55;;;;;;;13.60;9.10;;;;;;;10.67;66.53;100810.00;5025603;28;20033;-78
2022/04/22 01:24:20;;;;;;;14.82;9.57;;;;;;;10.66;66.89;100805.66;5024930;28;20022;-78
2022/04/22 01:26:46;;;;;;;13.80;9.05;;;;;;;10.66;66.46;100808.28;5025839;28;20021;-78
2022/04/22 01:29:13;;;;;;;16.35;10.10;;;;;;;10.63;67.05;100802.09;5024039;28;20026;-78
2022/04/22 01:31:38;;;;;;;14.55;9.80;;;;;;;10.63;67.34;100796.88;5024820;28;20032;-78
2022/04/22 01:34:04;;;;;;;13.23;9.75;;;;;;;10.65;67.04;100803.03;5023664;28;20045;-78
2022/04/22 01:36:29;;;;;;;14.52;9.43;;;;;;;10.61;67.61;100789.03;5025762;28;20141;-78
2022/04/22 01:38:55;;;;;;;14.45;9.93;;;;;;;10.61;67.60;100796.84;5011051;28;20081;-78
2022/04/22 01:41:21;;;;;;;13.75;10.45;;;;;;;10.56;67.74;100796.75;5024536;28;20026;-78
2022/04/22 01:43:46;;;;;;;15.20;9.70;;;;;;;10.56;67.58;100788.94;5025883;28;20088;-78
2022/04/22 01:46:14;;;;;;;14.77;9.63;;;;;;;10.54;67.80;100788.03;5023389;28;20284;-78
2022/04/22 01:48:40;;;;;;;16.52;10.18;;;;;;;10.54;67.58;100785.44;5024849;28;20244;-78
2022/04/22 01:51:05;;;;;;;15.75;9.80;;;;;;;10.52;67.90;100788.84;5023855;28;20014;-78
2022/04/22 01:53:30;;;;;;;16.38;10.13;;;;;;;10.44;68.20;100797.34;5024665;28;20030;-78
2022/04/22 01:55:56;;;;;;;14.60;10.25;;;;;;;10.41;68.09;100796.38;5025342;28;20053;-78
2022/04/22 01:58:21;;;;;;;15.73;10.82;;;;;;;10.39;68.38;100792.88;5024161;28;20049;-78
2022/04/22 02:00:46;;;;;;;14.65;10.38;;;;;;;10.38;68.22;100785.91;5024213;28;20026;-78
2022/04/22 02:03:11;;;;;;;15.10;10.30;;;;;;;10.33;68.71;100795.31;5025096;28;20065;-78
2022/04/22 02:05:37;;;;;;;14.38;9.90;;;;;;;10.32;68.62;100791.81;5024333;28;20026;-78
2022/04/22 02:08:02;;;;;;;15.95;10.40;;;;;;;10.28;68.50;100789.97;5024669;28;20097;-78
2022/04/22 02:10:27;;;;;;;15.18;10.35;;;;;;;10.25;68.99;100789.91;5023754;28;20034;-78
2022/04/22 02:12:53;;;;;;;18.63;11.57;;;;;;;10.19;68.81;100795.84;5022965;28;20026;-78
2022/04/22 02:15:19;;;;;;;16.90;11.23;;;;;;;10.17;69.07;100792.34;5024818;28;20041;-78
2022/04/22 02:17:45;;;;;;;18.38;11.90;;;;;;;10.13;69.46;100790.50;5025065;28;20026;-78
2022/04/22 02:20:11;;;;;;;15.85;10.90;;;;;;;10.13;69.25;100795.69;5024890;28;20093;-78
2022/04/22 02:22:37;;;;;;;15.82;10.68;;;;;;;10.10;69.05;100793.03;5024805;28;20050;-78
2022/04/22 02:25:02;;;;;;;17.20;10.57;;;;;;;10.12;68.64;100795.66;5025116;28;20025;-78
2022/04/22 02:30:12;;;;;;;17.08;11.65;;;;;;;10.09;69.60;100802.56;5024097;28;20021;-80
2022/04/22 02:32:37;;;;;;;15.73;11.25;;;;;;;10.07;69.65;100796.41;5023499;28;20256;-81
2022/04/22 02:35:03;;;;;;;20.33;11.57;;;;;;;10.05;69.69;100792.91;5023988;28;20058;-80
2022/04/22 02:37:28;;;;;;;14.95;10.15;;;;;;;10.01;70.22;100790.19;5022369;28;20021;-81
2022/04/22 02:39:54;;;;;;;17.42;11.43;;;;;;;9.98;69.89;100784.88;5024302;28;20109;-80
2022/04/22 02:47:47;;;;;;;17.05;11.20;;;;;;;9.94;70.25;100777.88;5022488;28;20040;-81
2022/04/22 02:50:12;;;;;;;17.73;11.98;;;;;;;9.95;70.23;100779.63;5023459;28;20046;-80
2022/04/22 02:52:37;;;;;;;17.67;11.38;;;;;;;9.91;70.28;100778.66;5022993;28;20041;-80
2022/04/22 02:55:03;;;;;;;17.55;11.68;;;;;;;9.89;70.32;100773.44;5023928;28;20021;-80
2022/04/22 02:57:28;;;;;;;17.52;12.05;;;;;;;9.84;70.67;100772.41;5022419;28;20093;-78
2022/04/22 02:59:53;;;;;;;15.95;11.18;;;;;;;9.82;70.67;100771.50;5022846;28;20021;-78
2022/04/22 03:02:19;;;;;;;19.67;12.30;;;;;;;9.80;70.49;100773.19;5021341;28;20038;-78
2022/04/22 03:04:44;;;;;;;22.10;12.32;;;;;;;9.77;71.38;100767.91;5022845;28;20029;-78
2022/04/22 03:07:09;;;;;;;18.80;11.73;;;;;;;9.77;70.94;100764.44;5022540;28;20094;-78
2022/04/22 03:09:35;;;;;;;19.52;11.77;;;;;;;9.74;71.18;100766.09;5023873;28;20080;-78
2022/04/22 03:12:00;;;;;;;20.30;12.10;;;;;;;9.74;70.97;100760.88;5023291;28;20276;-78
2022/04/22 03:14:26;;;;;;;19.25;12.68;;;;;;;9.75;70.94;100759.19;5023257;28;20049;-78
2022/04/22 03:16:52;;;;;;;19.83;12.63;;;;;;;9.68;70.79;100758.13;5022617;28;20013;-78
2022/04/22 03:19:17;;;;;;;19.30;12.27;;;;;;;9.65;70.73;100759.78;5022709;28;20050;-78
2022/04/22 03:21:42;;;;;;;18.40;11.93;;;;;;;9.68;70.66;100758.13;5023397;28;20034;-78
2022/04/22 03:24:08;;;;;;;19.83;12.43;;;;;;;9.67;70.63;100755.50;5021395;28;20029;-78
2022/04/22 03:26:33;;;;;;;21.98;12.70;;;;;;;9.68;70.66;100765.06;5021268;28;20022;-78
2022/04/22 03:29:01;;;;;;;21.48;12.52;;;;;;;9.65;71.14;100763.25;5021074;28;20036;-78
2022/04/22 03:31:27;;;;;;;19.85;12.35;;;;;;;9.65;70.76;100759.78;5023712;28;20050;-78
2022/04/22 03:33:52;;;;;;;20.50;12.70;;;;;;;9.63;70.47;100756.25;5021292;28;20100;-78
2022/04/22 03:36:17;;;;;;;20.55;12.82;;;;;;;9.60;70.73;100763.97;5022088;28;20231;-78
2022/04/22 03:38:43;;;;;;;20.60;12.60;;;;;;;9.55;71.16;100751.72;5022058;28;20087;-78
2022/04/22 03:41:10;;;;;;;21.88;13.23;;;;;;;9.54;70.77;100764.69;5022072;28;20056;-78
2022/04/22 03:43:36;;;;;;;21.00;13.02;;;;;;;9.49;71.05;100761.97;5022613;28;20097;-78
2022/04/22 03:46:01;;;;;;;20.33;12.68;;;;;;;9.49;70.85;100748.97;5022017;28;20065;-78
2022/04/22 03:48:27;;;;;;;23.50;13.95;;;;;;;9.47;71.36;100757.56;5022350;28;20030;-78
2022/04/22 03:50:52;;;;;;;23.00;13.88;;;;;;;9.45;71.27;100752.34;5022597;28;20169;-78
2022/04/22 03:53:17;;;;;;;21.13;13.00;;;;;;;9.44;71.92;100752.28;5022171;28;20022;-78
2022/04/22 03:55:44;;;;;;;22.00;13.00;;;;;;;9.40;72.00;100754.81;5022048;28;20053;-78
2022/04/22 03:58:10;;;;;;;22.25;13.32;;;;;;;9.41;71.95;100750.50;5021259;28;20114;-78
2022/04/22 04:00:48;;;;;;;22.40;13.23;;;;;;;9.39;71.58;100745.25;5022458;28;20091;-78
2022/04/22 04:03:17;;;;;;;22.58;13.68;;;;;;;9.37;72.00;100740.84;5021991;28;20041;-78
2022/04/22 04:05:48;;;;;;;24.02;13.57;;;;;;;9.35;71.83;100735.59;5023117;28;20136;-78
2022/04/22 04:08:14;;;;;;;23.52;14.60;;;;;;;9.32;71.88;100739.84;5020933;28;20169;-78
2022/04/22 04:16:28;;;;;;;24.45;14.38;;;;;;;9.29;72.38;100747.56;5000159;28;20064;-78
2022/04/22 04:23:14;;;;;;;24.63;14.27;;;;;;;9.28;72.19;100746.66;5001085;28;20305;-78
2022/04/22 04:24:22;;;;;;;24.48;14.98;;;;;;;9.23;72.44;100746.56;5022533;28;20029;-78
2022/04/22 04:26:47;;;;;;;25.90;15.27;;;;;;;9.25;72.57;100746.59;5022508;28;20021;-78
2022/04/22 04:29:13;;;;;;;26.23;14.95;;;;;;;9.21;72.42;100737.84;5020569;28;20050;-78
2022/04/22 04:31:39;;;;;;;27.15;15.98;;;;;;;9.21;72.88;100734.34;5021915;28;20224;-78
2022/04/22 04:34:04;;;;;;;25.35;14.80;;;;;;;9.20;73.03;100732.59;5022620;28;20041;-78
2022/04/22 04:36:31;;;;;;;27.27;16.00;;;;;;;9.19;72.93;100728.22;5019966;28;20022;-78
2022/04/22 04:38:56;;;;;;;25.58;14.85;;;;;;;9.18;73.05;100729.06;5022676;28;20268;-78
2022/04/22 04:41:22;;;;;;;26.83;15.88;;;;;;;9.14;73.33;100733.31;5021399;28;20063;-78
2022/04/22 04:43:47;;;;;;;28.17;15.02;;;;;;;9.15;73.58;100732.47;5018629;28;20049;-78
2022/04/22 04:46:12;;;;;;;28.60;16.15;;;;;;;9.14;73.76;100735.91;5021782;28;20060;-78
2022/04/22 04:48:37;;;;;;;27.52;15.88;;;;;;;9.13;73.85;100734.16;5021479;28;20374;-78
2022/04/22 04:51:03;;;;;;;30.88;17.35;;;;;;;9.12;74.49;100732.38;5020423;28;20196;-78
2022/04/22 04:53:29;;;;;;;30.75;16.85;;;;;;;9.15;74.59;100734.19;5020612;28;20041;-78
2022/04/22 04:55:54;;;;;;;30.90;16.63;;;;;;;9.13;74.54;100728.06;5021361;28;20076;-78
2022/04/22 04:58:20;;;;;;;34.53;17.50;;;;;;;9.15;74.43;100737.69;5021269;28;20410;-78
2022/04/22 05:00:46;;;;;;;28.33;16.60;;;;;;;9.16;74.64;100734.22;5021264;28;20037;-78
2022/04/22 05:03:12;;;;;;;30.80;16.92;;;;;;;9.17;74.93;100732.53;5022363;28;20030;-78
2022/04/22 05:05:37;;;;;;;31.40;16.63;;;;;;;9.17;74.95;100728.19;5021409;28;20049;-78
2022/04/22 05:08:05;;;;;;;30.60;17.52;;;;;;;9.20;75.33;100737.81;5022096;28;20041;-78
2022/04/22 05:10:32;;;;;;;30.75;16.95;;;;;;;9.22;75.01;100738.72;5021131;28;20028;-78
2022/04/22 05:12:59;;;;;;;32.05;16.77;;;;;;;9.26;75.00;100735.34;5020770;28;20094;-78
2022/04/22 05:15:26;;;;;;;31.05;16.27;;;;;;;9.29;75.01;100737.16;5021583;28;20054;-78
2022/04/22 05:17:52;;;;;;;32.67;16.85;;;;;;;9.29;75.36;100729.38;5021628;28;20072;-78
2022/04/22 05:20:20;;;;;;;32.33;18.30;;;;;;;9.30;75.42;100738.91;5022809;28;20299;-78
2022/04/22 05:22:45;;;;;;;30.95;17.02;;;;;;;9.32;75.60;100729.44;5025388;28;20049;-78
2022/04/22 05:25:13;;;;;;;30.77;17.38;;;;;;;9.33;76.02;100731.22;5025171;28;20104;-78
2022/04/22 05:27:39;;;;;;;33.53;17.83;;;;;;;9.33;75.81;100741.63;5024131;28;20129;-78
2022/04/22 05:32:49;;;;;;;34.45;18.83;;;;;;;9.36;76.47;100733.91;5023888;28;20287;-78
2022/04/22 05:35:17;;;;;;;40.15;20.20;;;;;;;9.39;76.59;100733.97;5024551;28;20018;-78
2022/04/22 05:37:45;;;;;;;40.80;20.15;;;;;;;9.43;76.64;100740.13;5025082;28;20093;-78
2022/04/22 05:40:12;;;;;;;39.90;21.07;;;;;;;9.45;76.65;100739.34;5025075;28;20030;-78
2022/04/22 05:42:38;;;;;;;38.25;20.73;;;;;;;9.48;76.97;100730.75;5023484;28;20030;-78
2022/04/22 05:45:06;;;;;;;40.92;21.55;;;;;;;9.51;76.96;100731.69;5024573;28;20076;-78
2022/04/22 05:47:32;;;;;;;39.15;21.27;;;;;;;9.55;77.25;100743.94;5024998;28;20204;-78
2022/04/22 05:49:57;;;;;;;44.40;22.15;;;;;;;9.60;77.20;100743.16;5023626;28;20026;-78
2022/04/22 05:52:22;;;;;;;43.30;22.02;;;;;;;9.62;77.17;100752.78;5024850;28;20034;-78
2022/04/22 05:54:47;;;;;;;44.15;21.60;;;;;;;9.66;77.34;100739.03;5024548;28;20212;-78
2022/04/22 05:57:13;;;;;;;46.40;22.70;;;;;;;9.70;77.17;100740.88;5023086;28;20056;-78
2022/04/22 05:59:38;;;;;;;48.53;23.35;;;;;;;9.72;77.12;100738.31;5025351;28;20390;-78
2022/04/22 06:02:04;;;;;;;48.40;24.05;;;;;;;9.78;77.31;100754.06;5024362;28;20169;-78
2022/04/22 06:04:29;;;;;;;45.20;23.00;;;;;;;9.82;77.78;100747.19;5023405;28;20096;-78
2022/04/22 06:06:55;;;;;;;47.33;23.50;;;;;;;9.88;77.28;100748.25;5023934;28;20025;-78
2022/04/22 06:12:04;;;;;;;51.33;25.25;;;;;;;9.96;77.77;100739.75;5024777;28;20279;-78
2022/04/22 06:14:29;;;;;;;51.95;25.63;;;;;;;10.02;77.68;100737.28;5022093;28;20025;-78
2022/04/22 06:16:55;;;;;;;55.60;26.83;;;;;;;10.08;77.38;100740.06;5023499;28;20033;-78
2022/04/22 06:19:20;;;;;;;57.50;26.35;;;;;;;10.12;77.31;100731.44;5024776;28;20030;-79
2022/04/22 06:21:45;;;;;;;54.13;25.65;;;;;;;10.19;76.82;100733.34;5023263;28;20252;-78
2022/04/22 06:24:11;;;;;;;55.72;26.45;;;;;;;10.25;76.84;100737.81;5024835;28;20022;-78
2022/04/22 06:26:38;;;;;;;58.35;27.38;;;;;;;10.33;76.81;100735.41;5024305;28;20114;-78
2022/04/22 06:29:03;;;;;;;60.65;28.45;;;;;;;11.04;75.46;100736.94;5024687;28;20295;-78
2022/04/22 06:31:29;;;;;;;63.08;27.67;;;;;;;13.45;68.36;100732.75;5023947;28;20029;-78
2022/04/22 06:33:56;;;;;;;54.45;26.08;;;;;;;15.87;59.67;100730.50;5023083;28;20022;-78
2022/04/22 06:36:27;;;;;;;57.00;27.80;;;;;;;17.84;54.10;100735.00;5022743;28;20026;-78
2022/04/22 06:38:58;;;;;;;52.90;25.98;;;;;;;19.31;49.40;100721.97;5023141;28;20026;-78
2022/04/22 06:46:52;;;;;;;68.82;30.23;;;;;;;20.93;42.61;100716.47;5024490;28;20076;-78
2022/04/22 06:49:17;;;;;;;69.15;30.02;;;;;;;19.45;46.72;100723.50;5022028;28;20025;-78
2022/04/22 06:51:42;;;;;;;73.65;31.73;;;;;;;18.22;50.09;100727.66;5023236;28;20039;-78
2022/04/22 06:54:08;;;;;;;74.28;31.60;;;;;;;17.25;52.60;100731.00;5024095;28;20029;-78
2022/04/22 06:56:36;;;;;;;69.93;31.67;;;;;;;16.38;55.03;100727.81;5023520;28;20287;-78
2022/04/22 06:59:02;;;;;;;59.55;28.92;;;;;;;15.64;56.10;100726.06;5023181;28;20029;-78
2022/04/22 07:01:27;;;;;;;64.50;30.33;;;;;;;15.09;58.70;100732.97;5022754;28;20111;-78
2022/04/22 07:03:53;;;;;;;58.80;29.75;;;;;;;14.65;60.61;100733.66;5022728;28;20038;-78
2022/04/22 07:06:18;;;;;;;57.65;27.42;;;;;;;14.28;61.23;100730.81;5023085;28;20030;-78
2022/04/22 07:08:46;;;;;;;53.60;26.42;;;;;;;13.94;62.05;100732.31;5023875;28;20041;-78
2022/04/22 07:11:17;;;;;;;54.42;27.60;;;;;;;13.60;63.83;100732.00;5022341;28;20036;-78
2022/04/22 07:13:43;;;;;;;54.47;27.58;;;;;;;13.41;64.70;100730.94;5020935;28;20029;-78
2022/04/22 07:16:11;;;;;;;56.83;27.73;;;;;;;13.25;65.25;100735.97;5023501;28;20308;-78
2022/04/22 07:18:36;;;;;;;54.10;27.08;;;;;;;13.16;65.36;100728.03;5022029;28;20030;-78
2022/04/22 07:21:02;;;;;;;52.03;25.48;;;;;;;13.06;66.03;100727.06;5022388;28;20025;-78
2022/04/22 07:23:28;;;;;;;52.90;26.90;;;;;;;12.94;66.97;100721.69;5021133;28;20022;-77
2022/04/22 07:25:54;;;;;;;50.03;26.13;;;;;;;12.81;67.19;100718.91;5022877;28;20092;-78
2022/04/22 07:28:20;;;;;;;49.63;25.92;;;;;;;12.76;67.53;100710.16;5020847;28;20050;-78
2022/04/22 07:30:50;;;;;;;50.28;26.75;;;;;;;12.71;68.83;100711.81;5019177;28;20069;-78
2022/04/22 07:33:15;;;;;;;;;;;;;;;12.78;65.90;100712.78;5022732;28;20048;-77
2022/04/22 07:35:41;;;;;;;47.35;23.88;;;;;;;12.70;68.56;100713.56;5022027;28;19910;-77
2022/04/22 07:38:10;;;;;;;47.67;25.58;;;;;;;12.73;68.77;100709.22;5022215;28;20144;-78
2022/04/22 07:40:37;;;;;;;44.75;24.15;;;;;;;12.77;68.89;100711.03;5023149;28;20052;-78
2022/04/22 07:48:33;;;;;;;42.63;23.15;;;;;;;12.96;68.89;100715.63;5021474;28;20076;-78
2022/04/22 07:50:58;;;;;;;43.10;23.13;;;;;;;12.97;68.06;100711.25;5022122;28;21035;-78
2022/04/22 07:53:24;;;;;;;39.35;21.70;;;;;;;12.98;68.11;100713.91;5022672;28;20029;-78
2022/04/22 07:55:49;;;;;;;42.08;21.80;;;;;;;12.99;67.60;100712.16;5020699;28;20018;-78
2022/04/22 07:58:15;;;;;;;40.53;21.92;;;;;;;13.05;67.94;100715.72;5021625;28;20284;-78
2022/04/22 08:00:45;;;;;;;40.63;21.83;;;;;;;13.16;68.31;100712.34;5019700;28;20030;-78
2022/04/22 08:03:11;;;;;;;35.88;20.80;;;;;;;13.21;67.10;100708.06;5020745;28;20121;-78
2022/04/22 08:05:37;;;;;;;33.08;19.45;;;;;;;13.21;66.37;100706.31;5012845;28;20053;-78
2022/04/22 08:08:04;;;;;;;35.08;20.08;;;;;;;13.16;67.02;100707.13;5022947;28;20308;-78
2022/04/22 08:10:29;;;;;;;31.92;19.75;;;;;;;13.12;67.73;100705.31;5021744;28;20249;-78
2022/04/22 08:12:54;;;;;;;34.03;19.55;;;;;;;13.07;66.30;100705.28;5020753;28;20038;-77
2022/04/22 08:15:19;;;;;;;32.55;19.42;;;;;;;13.02;67.81;100713.06;5021455;28;20034;-77
2022/04/22 08:17:46;;;;;;;32.75;19.85;;;;;;;13.00;68.23;100712.16;5017911;28;20276;-77
2022/04/22 08:20:12;;;;;;;34.30;20.00;;;;;;;13.00;68.47;100706.94;5021745;28;20026;-77
2022/04/22 08:22:38;;;;;;;33.92;19.15;;;;;;;12.99;67.83;100706.91;5022460;28;20053;-77
2022/04/22 08:25:04;;;;;;;31.23;19.40;;;;;;;12.95;68.00;100706.03;5020991;28;20026;-77
2022/04/22 08:27:30;;;;;;;30.48;18.80;;;;;;;12.93;66.95;100717.31;5019218;28;20224;-77
2022/04/22 08:29:55;;;;;;;32.20;19.17;;;;;;;12.86;66.95;100708.50;5018005;28;20033;-77
2022/04/22 08:32:21;;;;;;;30.50;19.23;;;;;;;12.82;67.62;100698.91;5036438;28;20022;-77
2022/04/22 08:34:46;;;;;;;32.83;19.42;;;;;;;12.80;68.43;100701.50;5014931;28;20034;-77
2022/04/22 08:37:12;;;;;;;29.63;18.27;;;;;;;12.81;68.38;100695.38;5014193;28;20148;-78
2022/04/22 08:39:37;;;;;;;29.17;18.77;;;;;;;12.85;68.79;100686.72;5017616;28;20028;-78
2022/04/22 08:42:04;;;;;;;29.63;18.27;;;;;;;12.90;68.43;100683.28;5008387;28;20329;-78
2022/04/22 08:44:30;;;;;;;26.38;17.85;;;;;;;12.93;67.61;100692.03;5022383;28;20030;-78
2022/04/22 08:49:59;;;;;;;30.98;19.50;;;;;;;13.10;69.82;100681.75;5020660;28;20061;-78
2022/04/22 08:52:31;;;;;;;29.27;18.63;;;;;;;13.27;69.19;100686.31;5019703;28;20058;-78
2022/04/22 08:54:58;;;;;;;28.35;17.85;;;;;;;13.35;67.87;100677.69;5020201;28;20229;-78
2022/04/22 08:57:23;;;;;;;28.77;18.65;;;;;;;13.39;67.04;100683.81;5025354;28;20037;-78
2022/04/22 08:59:49;;;;;;;27.80;17.88;;;;;;;13.42;67.27;100677.75;5025192;28;20081;-78
2022/04/22 09:02:18;;;;;;;26.55;17.30;;;;;;;13.48;67.63;100678.66;5024028;28;20038;-78
2022/04/22 09:04:44;;;;;;;;;;;;;;;13.59;66.76;100681.41;5025544;28;20014;-78
2022/04/22 09:07:13;;;;;;;24.80;16.45;;;;;;;13.65;67.08;100676.19;5025132;28;19955;-80
2022/04/22 09:09:42;;;;;;;26.75;17.13;;;;;;;13.67;67.49;100677.09;5026036;28;20026;-80
2022/04/22 09:12:10;;;;;;;24.75;15.70;;;;;;;13.69;65.38;100677.13;5024837;28;20021;-79
2022/04/22 09:14:36;;;;;;;26.40;16.60;;;;;;;13.68;66.57;100670.97;5023947;28;20099;-80
2022/04/22 09:17:01;;;;;;;24.95;16.45;;;;;;;13.70;66.04;100666.66;5025354;28;20034;-80
2022/04/22 09:19:33;;;;;;;26.58;17.90;;;;;;;13.72;66.17;100661.44;5026141;28;20049;-80
2022/04/22 09:22:00;;;;;;;26.27;17.05;;;;;;;13.78;67.45;100656.22;5024849;28;20054;-80
2022/04/22 09:24:26;;;;;;;22.05;13.88;;;;;;;13.79;63.97;100649.22;5024656;28;20034;-80
2022/04/22 09:27:05;;;;;;;21.35;13.38;;;;;;;13.80;64.71;100658.84;5023815;28;20049;-80
2022/04/22 09:29:43;;;;;;;19.52;13.13;;;;;;;13.79;64.34;100642.28;5024494;28;20028;-81
2022/04/22 09:32:11;;;;;;;20.15;13.65;;;;;;;13.80;64.54;100638.81;5025501;28;20052;-80
2022/04/22 09:34:39;;;;;;;23.80;14.33;;;;;;;13.84;64.55;100642.31;5023908;28;20069;-81
2022/04/22 09:42:58;;;;;;;19.25;13.15;;;;;;;14.11;63.63;100636.38;5025076;28;20057;-78
2022/04/22 09:45:35;;;;;;;18.75;13.07;;;;;;;14.17;63.29;100631.16;5025570;28;20038;-78
2022/04/22 09:48:01;;;;;;;18.15;12.63;;;;;;;14.21;62.97;100625.06;5024986;28;20045;-78
2022/04/22 09:50:40;;;;;;;18.25;12.65;;;;;;;14.27;62.90;100616.34;5022882;28;20288;-77
2022/04/22 09:53:06;;;;;;;18.55;12.90;;;;;;;14.40;64.15;100615.53;5024466;28;20048;-78
2022/04/22 09:55:48;;;;;;;18.95;13.52;;;;;;;14.61;64.94;100616.47;5024327;28;20165;-77
2022/04/22 09:58:21;;;;;;;18.13;12.85;;;;;;;14.74;62.73;100605.22;5024366;28;20037;-78
2022/04/22 10:00:49;;;;;;;20.60;12.73;;;;;;;14.73;60.88;100600.81;5024254;28;20072;-77
2022/04/22 10:03:15;;;;;;;19.23;12.55;;;;;;;14.71;60.04;100610.41;5023386;28;20216;-77
2022/04/22 10:05:41;;;;;;;17.35;12.50;;;;;;;14.68;60.10;100609.56;5024524;28;20106;-77
2022/04/22 10:08:09;;;;;;;21.23;14.32;;;;;;;14.60;60.71;100615.63;5023880;28;20080;-77
2022/04/22 10:10:38;;;;;;;19.40;13.23;;;;;;;14.53;60.76;100605.97;5024497;28;20030;-77
2022/04/22 10:13:04;;;;;;;21.48;13.65;;;;;;;14.44;59.72;100606.81;5021295;28;20164;-77
2022/04/22 10:15:37;;;;;;;19.88;13.75;;;;;;;14.39;59.20;100611.16;5024151;28;20319;-77
2022/04/22 10:18:04;;;;;;;19.02;13.35;;;;;;;14.32;58.76;100598.03;5022591;28;20025;-77
2022/04/22 10:20:32;;;;;;;18.73;12.95;;;;;;;14.25;60.30;100603.25;5023938;28;20034;-77
2022/04/22 10:22:57;;;;;;;17.83;13.52;;;;;;;14.21;59.75;100603.22;5019513;28;20048;-77
2022/04/22 10:25:23;;;;;;;21.10;14.18;;;;;;;14.18;61.08;100608.44;5022575;28;20300;-78
2022/04/22 10:27:52;;;;;;;19.15;13.55;;;;;;;14.14;61.42;100604.94;5021691;28;20276;-78
2022/04/22 10:30:19;;;;;;;19.27;14.20;;;;;;;14.15;61.40;100592.69;5012647;28;20123;-78
2022/04/22 10:32:47;;;;;;;20.33;14.52;;;;;;;14.18;61.99;100596.22;5008310;28;20052;-78
2022/04/22 10:35:14;;;;;;;18.60;13.80;;;;;;;14.21;60.71;100584.88;5021156;28;20075;-77
2022/04/22 10:37:41;;;;;;;18.20;14.23;;;;;;;14.23;60.66;100585.75;5021267;28;20030;-77
2022/04/22 10:40:20;;;;;;;19.05;13.70;;;;;;;14.26;59.87;100598.88;5022838;28;20037;-77
2022/04/22 10:42:47;;;;;;;21.00;14.52;;;;;;;14.23;59.16;100597.09;5021033;28;20041;-77
2022/04/22 10:47:57;;;;;;;18.33;13.82;;;;;;;14.19;61.17;100584.00;5020725;28;20334;-80
2022/04/22 10:50:37;;;;;;;17.23;13.88;;;;;;;14.19;59.90;100584.00;5022438;28;20097;-79
2022/04/22 10:53:23;;;;;;;19.58;14.68;;;;;;;14.22;60.45;100584.00;5010566;28;20037;-80
2022/04/22 10:55:49;;;;;;;19.95;14.45;;;;;;;14.25;60.28;100584.91;5022136;28;20087;-80
2022/04/22 10:58:14;;;;;;;20.05;14.98;;;;;;;14.26;60.31;100580.53;5023216;28;20046;-79
2022/04/22 11:00:50;;;;;;;19.37;14.40;;;;;;;14.27;60.13;100587.53;5019656;28;20045;-80
2022/04/22 11:03:29;;;;;;;18.25;14.57;;;;;;;14.25;59.85;100584.00;5020315;28;20281;-80
2022/04/22 11:05:55;;;;;;;;;;;;;;;14.30;59.78;100576.19;5019665;28;20029;-80
2022/04/22 11:08:25;;;;;;;18.30;14.30;;;;;;;14.25;60.08;100574.41;5013804;28;20160;-80
2022/04/22 11:10:51;;;;;;;24.30;14.88;;;;;;;14.25;59.74;100569.19;5018115;28;20028;-80
2022/04/22 11:13:29;;;;;;;20.15;15.27;;;;;;;14.30;59.45;100574.44;5021444;28;20029;-80
2022/04/22 11:15:58;;;;;;;19.67;15.63;;;;;;;14.36;59.73;100560.47;5020496;28;20026;-80
2022/04/22 11:18:24;;;;;;;21.27;15.70;;;;;;;14.41;58.88;100559.63;5020720;28;20030;-78
2022/04/22 11:21:01;;;;;;;22.25;16.13;;;;;;;14.45;59.30;100570.97;5021640;28;20043;-78
2022/04/22 11:23:44;;;;;;;21.00;15.73;;;;;;;14.47;59.09;100560.50;5022095;28;20291;-78
2022/04/22 11:26:12;;;;;;;20.02;15.55;;;;;;;14.47;60.10;100560.50;5023324;28;20261;-78
2022/04/22 11:28:39;;;;;;;21.52;16.17;;;;;;;14.46;58.15;100554.38;5022515;28;20269;-78
2022/04/22 11:31:07;;;;;;;22.52;16.92;;;;;;;14.43;59.13;100568.34;5021120;28;20096;-78
2022/04/22 11:33:50;;;;;;;22.27;17.30;;;;;;;14.41;58.80;100553.47;5018004;28;20033;-76
2022/04/22 11:36:16;;;;;;;23.35;16.10;;;;;;;14.38;58.89;100562.25;5014571;28;20105;-76
2022/04/22 11:38:49;;;;;;;23.83;16.40;;;;;;;14.37;60.07;100557.84;5022449;28;20053;-76
2022/04/22 11:41:16;;;;;;;22.23;16.30;;;;;;;14.35;59.23;100562.22;5022454;28;20086;-76
2022/04/22 11:43:41;;;;;;;23.13;16.50;;;;;;;14.36;60.46;100555.22;5022733;28;20026;-76
2022/04/22 11:46:08;;;;;;;22.60;16.73;;;;;;;14.37;60.10;100563.09;5022101;28;20080;-76
2022/04/22 11:48:33;;;;;;;22.75;16.35;;;;;;;14.39;60.39;100556.09;5022679;28;20038;-76
2022/04/22 11:50:59;;;;;;;22.15;16.58;;;;;;;14.42;60.55;100564.00;5022714;28;20026;-76
2022/04/22 11:53:26;;;;;;;20.00;15.63;;;;;;;14.50;60.15;100555.28;5022910;28;20041;-76
2022/04/22 11:55:52;;;;;;;20.48;15.85;;;;;;;14.58;61.08;100554.44;5023210;28;20018;-76
2022/04/22 11:58:20;;;;;;;23.67;15.90;;;;;;;14.65;59.68;100544.84;5021903;28;20034;-76
2022/04/22 12:06:16;;;;;;;23.50;15.70;;;;;;;14.75;59.12;100538.75;5023184;28;20056;-76
2022/04/22 12:08:56;;;;;;;20.42;15.43;;;;;;;14.79;59.29;100542.25;5021814;28;20272;-76
2022/04/22 12:11:22;;;;;;;22.92;15.85;;;;;;;14.78;58.06;100540.50;5023191;28;20034;-76